Metar Cercanos

 

LEPA - Palma De Mallorc, Spain
Distance from station: ONO 38km
Actualización: 17/02/2018 22:00
Muy nuboso
Muy nuboso
 Viento del ENE
Viento: ENE 30 km/h
Temperatura: 13°C
Rocío: 8°C
Humedad: 72%
Barómetro: 1022 hPa
Clouds: Muy nuboso
Visibility: 10 km
Cloud details: Few Clouds 549 m
Parcialmente nuboso 914 m
Muy nuboso 1798 m
2018/02/17 21:00 LEPA 172100Z 07016KT 9999 FEW018 SCT030 BKN059 13/08 Q1022 NOSIG
LEMH - Mahon/Menorca Is, Spain
Distance from station: ENE 105km
Actualización: 17/02/2018 22:00
Light drizzle, Muy nuboso
Light drizzle, Muy nuboso
 Viento del NNE
Viento: NNE 33 km/h
Temperatura: 12°C
Rocío: 8°C
Humedad: 77%
Barómetro: 1021 hPa
Resumen: Light Drizzle
Clouds: Muy nuboso
Visibility: 10 km
Cloud details: Few Clouds 244 m
Muy nuboso 1219 m
2018/02/17 21:00 LEMH 172100Z 03018KT 9999 -DZ FEW008 BKN040 12/08 Q1021
 
LEIB - Ibiza/Es Codola, Spain
Distance from station: OSO 165km
Actualización: 17/02/2018 22:00
Muy nuboso
Muy nuboso
 Viento del NE
Viento: NE 13 km/h
Temperatura: 14°C
Rocío: 11°C
Humedad: 82%
Barómetro: 1021 hPa
Clouds: Muy nuboso
Visibility: 10 km
Cloud details: Few Clouds 427 m
Parcialmente nuboso 549 m
Muy nuboso 1524 m
2018/02/17 21:00 LEIB 172100Z 04007KT 360V080 9999 FEW014 SCT018 BKN050 14/11 Q1021 NOSIG
LEBL - Barcelona Airpor, Spain
Distance from station: NNO 225km
Actualización: 17/02/2018 22:00
Light drizzle, Muy nuboso
Light drizzle, Muy nuboso
 Viento del OSO
Viento: OSO 11 km/h
Temperatura: 11°C
Rocío: 10°C
Humedad: 94%
Barómetro: 1022 hPa
Resumen: Light Drizzle
Clouds: Muy nuboso
Visibility: 10 km
Cloud details: Few Clouds 457 m
Muy nuboso 1219 m
2018/02/17 21:00 LEBL 172100Z 25006KT 9999 -DZ FEW015 BKN040 11/10 Q1022 NOSIG
 
LEVC - Valencia (civ/Mi, Spain
Distance from station: NO 188km
Actualización: 17/02/2018 22:00
Lluvia débil, Muy nuboso
Lluvia débil, Muy nuboso
 Viento del SSO
Viento: SSO 6 km/h
Temperatura: 13°C
Rocío: 12°C
Humedad: 94%
Barómetro: 1023 hPa
Resumen: Lluvia débil
Clouds: Muy nuboso
Visibility: 8 km
Cloud details: Few Clouds 1067 m
Muy nuboso 1524 m
2018/02/17 21:00 LEVC 172100Z 21003KT 8000 -RA FEW035 BKN050 13/12 Q1023 TEMPO 4000
LEGE - Gerona/Costa Bra, Spain
Distance from station: N 276km
Actualización: 17/02/2018 22:00
Lluvia, Muy nuboso
Lluvia, Muy nuboso
 Viento del varies
Viento: varies 2 km/h
Temperatura: 8°C
Rocío: 8°C
Humedad: 100%
Barómetro: 1022 hPa
Resumen: Lluvia
Clouds: Muy nuboso
Visibility: 5 km
Cloud details: Few Clouds 1219 m
Muy nuboso 1524 m
2018/02/17 21:00 LEGE 172100Z VRB01KT 5000 RA FEW040 BKN050 08/08 Q1022
 
LEAL - Alicante/El Alte, Spain
Distance from station: OSO 344km
Actualización: 17/02/2018 22:00
Parcialmente nuboso
Parcialmente nuboso
 Viento del varies
Viento: varies 4 km/h
Temperatura: 14°C
Rocío: 13°C
Humedad: 94%
Barómetro: 1021 hPa
Clouds: Parcialmente nuboso
Visibility: 10 km
Cloud details: Few Clouds 975 m
Parcialmente nuboso 1524 m
2018/02/17 21:00 LEAL 172100Z VRB02KT 9999 FEW032 SCT050 14/13 Q1021 NOSIG
LEAM - Almeria Airport, Spain
Distance from station: SSO 56km
Actualización: 17/02/2018 22:00
Despejado
Despejado
 Viento del NNE
Viento: NNE 6 km/h
Temperatura: 12°C
Rocío: 10°C
Humedad: 88%
Barómetro: 1020 hPa
Resumen: Despejado
Visibility: greater than 10 km
2018/02/17 21:00 LEAM 172100Z 03003KT CAVOK 12/10 Q1020
 
LEZG - Zaragoza (mil/Ci, Spain
Distance from station: NO 431km
Actualización: 17/02/2018 22:00
Despejado
Despejado
 Viento del ONO
Viento: ONO 35 km/h
Temperatura: 9°C
Sensación frio: 5°C
Rocío: 3°C
Humedad: 66%
Barómetro: 1025 hPa
Resumen: Despejado
Visibility: greater than 10 km
2018/02/17 21:00 LEZG 172100Z 29019KT CAVOK 09/03 Q1025
LEMD - Madrid/Barajas, Spain
Distance from station: ONO 234km
Actualización: 17/02/2018 22:00
Muy nuboso
Muy nuboso
 Viento del NNE
Viento: NNE 15 km/h
Temperatura: 9°C
Sensación frio: 7°C
Rocío: 2°C
Humedad: 62%
Barómetro: 1024 hPa
Clouds: Muy nuboso
Visibility: 10 km
Cloud details: Parcialmente nuboso 1067 m
Muy nuboso 2377 m
2018/02/17 21:00 LEMD 172100Z 03008KT 340V100 9999 SCT035 BKN078 09/02 Q1024 NOSIG
 
LEGR - Granada Airport, Spain
Distance from station: OSO 62km
Actualización: 17/02/2018 22:00
Despejado
Despejado
 Viento del SO
Viento: SO 6 km/h
Temperatura: 8°C
Rocío: 5°C
Humedad: 82%
Barómetro: 1022 hPa
Resumen: Despejado
Visibility: greater than 10 km
2018/02/17 21:00 LEGR 172100Z 22003KT CAVOK 08/05 Q1022
LEMG - Malaga (civ/Mil), Spain
Distance from station: OSO 227km
Actualización: 17/02/2018 22:00
Despejado
Despejado
 Viento del O
Viento: O 26 km/h
Temperatura: 16°C
Rocío: 9°C
Humedad: 63%
Barómetro: 1020 hPa
Resumen: Despejado
Visibility: greater than 10 km
2018/02/17 21:00 LEMG 172100Z 28014KT CAVOK 16/09 Q1020 NOSIG
 
LEZL - Sevilla (civ/Mil, Spain
Distance from station: S 318km
Actualización: 17/02/2018 22:00
Despejado
Despejado
 Viento del SO
Viento: SO 7 km/h
Temperatura: 12°C
Rocío: 9°C
Humedad: 82%
Barómetro: 1022 hPa
Resumen: Despejado
Visibility: greater than 10 km
2018/02/17 21:00 LEZL 172100Z 22004KT CAVOK 12/09 Q1022 NOSIG
LEVT - Vitoria, Spain
Distance from station: NO 226km
Actualización: 17/02/2018 22:00
Parcialmente nuboso
Parcialmente nuboso
 Viento del NNO
Viento: NNO 6 km/h
Temperatura: 5°C
Rocío: 3°C
Humedad: 87%
Barómetro: 1027 hPa
Clouds: Parcialmente nuboso
Visibility: 10 km
Cloud details: Parcialmente nuboso 610 m
Parcialmente nuboso 1372 m
2018/02/17 21:00 LEVT 172100Z 34003KT 290V090 9999 SCT020 SCT045 05/03 Q1027
 
LEBB - Bilbao/Sondica, Spain
Distance from station: NNO 235km
Actualización: 17/02/2018 22:00
Parcialmente nuboso
Parcialmente nuboso
 Viento del varies
Viento: varies 2 km/h
Temperatura: 8°C
Rocío: 7°C
Humedad: 93%
Barómetro: 1029 hPa
Clouds: Parcialmente nuboso
Visibility: 10 km
Cloud details: Few Clouds 853 m
Parcialmente nuboso 1219 m
2018/02/17 21:00 LEBB 172100Z VRB01KT 9999 FEW028 SCT040 08/07 Q1029 NOSIG
LESO - San Sebastian/Fu, Spain
Distance from station: N 231km
Actualización: 17/02/2018 22:00
Lluvia débil, Cubierto
Lluvia débil, Cubierto
 Viento del varies
Viento: varies 6 km/h
Temperatura: 9°C
Rocío: 7°C
Humedad: 87%
Barómetro: 1028 hPa
Resumen: Lluvia débil
Clouds: Cubierto
Visibility: 10 km
Cloud details: Parcialmente nuboso 1006 m
Muy nuboso 1524 m
Cubierto 1737 m
2018/02/17 21:00 LESO 172100Z AUTO VRB03KT 9999 -RA SCT033/// BKN050/// OVC057/// 09/07 Q1028
 
LEVD - Valladolid(Mil/C, Spain
Distance from station: ONO 239km
Actualización: 17/02/2018 21:30
Muy nuboso
Muy nuboso
 Viento del NE
Viento: NE 15 km/h
Temperatura: 3°C
Sensación frio: -1°C
Rocío: 0°C
Humedad: 81%
Barómetro: 1026 hPa
Clouds: Muy nuboso
Visibility: 10 km
Cloud details: Muy nuboso 1494 m
2018/02/17 20:30 LEVD 172030Z 05008KT 9999 BKN049 03/M00 Q1026
LESA - Salamanca (civ/M, Spain
Distance from station: ONO 349km
Actualización: 17/02/2018 19:00
NOT Current
Few Clouds
Few Clouds
 Viento del ENE
Viento: ENE 19 km/h
Temperatura: 8°C
Sensación frio: 4°C
Rocío: 2°C
Humedad: 66%
Barómetro: 1025 hPa
Clouds: Few Clouds
Visibility: 10 km
Cloud details: Few Clouds 914 m
2018/02/17 18:00 LESA 171800Z 07010KT 9999 FEW030 08/02 Q1025
 
LEXJ - Santander/Paraya, Spain
Distance from station: NNO 247km
Actualización: 17/02/2018 22:00
Parcialmente nuboso
Parcialmente nuboso
 Viento del SSO
Viento: SSO 6 km/h
Temperatura: 8°C
Rocío: 6°C
Humedad: 87%
Barómetro: 1029 hPa
Clouds: Parcialmente nuboso
Visibility: 10 km
Cloud details: Few Clouds 975 m
Parcialmente nuboso 1707 m
2018/02/17 21:00 LEXJ 172100Z 20003KT 160V270 9999 FEW032 SCT056 08/06 Q1029
LEAS - Asturias/Aviles, Spain
Distance from station: NO 214km
Actualización: 17/02/2018 22:00
Parcialmente nuboso
Parcialmente nuboso
 Viento del SO
Viento: SO 7 km/h
Temperatura: 8°C
Sensación frio: 7°C
Rocío: 6°C
Humedad: 87%
Barómetro: 1029 hPa
Clouds: Parcialmente nuboso
Visibility: 10 km
Cloud details: Parcialmente nuboso 732 m
2018/02/17 21:00 LEAS 172100Z 23004KT 9999 SCT024 08/06 Q1029 NOSIG
 
LECO - La Coruna/Alvedr, Spain
Distance from station: ONO 222km
Actualización: 17/02/2018 22:00
Despejado
Despejado
 Viento del varies
Viento: varies 2 km/h
Temperatura: 8°C
Rocío: 5°C
Humedad: 82%
Barómetro: 1030 hPa
Resumen: Despejado
Visibility: greater than 10 km
2018/02/17 21:00 LECO 172100Z VRB01KT CAVOK 08/05 Q1030 NOSIG
LEVX - Vigo/Peinador, Spain
Distance from station: O 214km
Actualización: 17/02/2018 22:00
Despejado
Despejado
 Viento del NNE
Viento: NNE 17 km/h
Temperatura: 8°C
Sensación frio: 5°C
Rocío: 5°C
Humedad: 82%
Barómetro: 1027 hPa
Resumen: Despejado
Visibility: greater than 10 km
2018/02/17 21:00 LEVX 172100Z 03009KT 350V050 CAVOK 08/05 Q1027 NOSIG